createdAt,value
2023-04-01T00:01:41.327Z,7.07
2023-04-01T00:03:49.631Z,7.18
2023-04-01T00:05:58.172Z,7.09
2023-04-01T00:08:09.065Z,7.06
2023-04-01T00:10:19.777Z,7.10
2023-04-01T00:12:28.073Z,7.13
2023-04-01T00:14:38.237Z,7.17
2023-04-01T00:16:46.240Z,7.22
2023-04-01T00:18:55.171Z,7.34
2023-04-01T00:21:03.232Z,7.33
2023-04-01T00:23:13.774Z,7.38
2023-04-01T00:25:21.923Z,7.26
2023-04-01T00:27:30.305Z,7.27
2023-04-01T00:29:39.115Z,7.25
2023-04-01T00:31:47.172Z,7.28
2023-04-01T00:33:55.951Z,7.39
2023-04-01T00:36:11.060Z,7.35
2023-04-01T00:38:21.732Z,7.33
2023-04-01T00:40:32.540Z,7.22
2023-04-01T00:42:40.888Z,7.27
2023-04-01T00:44:52.073Z,7.29
2023-04-01T00:47:00.625Z,7.14
2023-04-01T00:49:08.848Z,7.13
2023-04-01T00:51:21.567Z,7.14
2023-04-01T00:53:34.718Z,7.33
2023-04-01T00:55:47.905Z,7.33
2023-04-01T00:57:59.416Z,7.50
2023-04-01T01:00:10.665Z,7.50
2023-04-01T01:02:19.738Z,7.52
2023-04-01T01:04:30.350Z,7.48
2023-04-01T01:06:48.553Z,7.51
2023-04-01T01:09:14.639Z,7.56
2023-04-01T01:14:06.044Z,7.70
2023-04-01T01:16:24.744Z,7.62
2023-04-01T01:18:39.874Z,7.43
2023-04-01T01:21:21.986Z,7.38
2023-04-01T01:23:53.141Z,7.50
2023-04-01T01:26:19.233Z,7.58
2023-04-01T01:28:40.349Z,7.49
2023-04-01T01:30:56.586Z,7.46
2023-04-01T01:33:28.564Z,7.42
2023-04-01T01:35:42.823Z,7.44
2023-04-01T01:38:01.713Z,7.58
2023-04-01T01:40:12.787Z,7.49
2023-04-01T01:42:24.272Z,7.38
2023-04-01T01:44:33.911Z,7.45
2023-04-01T01:46:43.448Z,7.27
2023-04-01T01:48:53.087Z,7.20
2023-04-01T01:51:04.360Z,7.25
2023-04-01T01:53:14.653Z,7.31
2023-04-01T01:55:33.248Z,7.41
2023-04-01T01:57:43.742Z,7.41
2023-04-01T02:00:00.942Z,7.35
2023-04-01T02:02:13.075Z,7.32
2023-04-01T02:04:23.221Z,7.27
2023-04-01T02:06:39.087Z,7.15
2023-04-01T02:08:52.586Z,7.12
2023-04-01T02:11:03.998Z,7.25
2023-04-01T02:13:23.476Z,7.16
2023-04-01T02:15:36.899Z,7.14
2023-04-01T02:17:50.304Z,7.16
2023-04-01T02:20:01.745Z,7.20
2023-04-01T02:22:18.172Z,7.20
2023-04-01T02:24:29.300Z,7.20
2023-04-01T02:26:38.433Z,7.13
2023-04-01T02:28:50.575Z,7.04
2023-04-01T02:31:03.650Z,7.00
2023-04-01T02:33:12.543Z,6.83
2023-04-01T02:35:22.370Z,6.85
2023-04-01T02:37:34.146Z,7.02
2023-04-01T02:39:44.238Z,7.03
2023-04-01T02:41:52.237Z,6.98
2023-04-01T02:44:00.846Z,6.97
2023-04-01T02:46:09.383Z,6.97
2023-04-01T02:48:17.979Z,7.03
2023-04-01T02:50:26.545Z,6.87
2023-04-01T02:52:37.440Z,6.77
2023-04-01T02:54:45.573Z,6.88
2023-04-01T02:56:53.639Z,6.89
2023-04-01T02:59:01.606Z,6.80
2023-04-01T03:01:09.588Z,6.86
2023-04-01T03:03:17.967Z,6.84
2023-04-01T03:05:26.138Z,6.76
2023-04-01T03:07:36.603Z,6.66
2023-04-01T03:09:44.654Z,6.63
2023-04-01T03:11:52.550Z,6.53
2023-04-01T03:14:01.044Z,6.65
2023-04-01T03:16:10.318Z,6.63
2023-04-01T03:18:18.455Z,6.61
2023-04-01T03:20:26.419Z,6.43
2023-04-01T03:22:37.347Z,6.45
2023-04-01T03:24:45.847Z,6.46
2023-04-01T03:26:54.040Z,6.52
2023-04-01T03:29:02.005Z,6.62
2023-04-01T03:31:10.210Z,6.52
2023-04-01T03:33:24.396Z,6.40
2023-04-01T03:35:32.864Z,6.37
2023-04-01T03:37:44.169Z,6.41
2023-04-01T03:39:52.087Z,6.44
2023-04-01T03:41:59.969Z,6.51
2023-04-01T03:44:08.297Z,6.61
2023-04-01T03:46:21.552Z,6.62
2023-04-01T03:48:29.977Z,6.71
2023-04-01T03:50:39.150Z,6.72
2023-04-01T03:52:49.801Z,6.68
2023-04-01T03:54:57.867Z,6.69
2023-04-01T03:57:06.096Z,6.72
2023-04-01T03:59:15.695Z,6.78
2023-04-01T04:01:25.924Z,6.71
2023-04-01T04:03:37.427Z,6.75
2023-04-01T04:05:51.061Z,6.63
2023-04-01T04:08:02.959Z,6.62
2023-04-01T04:10:12.170Z,6.42
2023-04-01T04:12:20.786Z,6.42
2023-04-01T04:14:28.861Z,6.37
2023-04-01T04:16:39.009Z,6.24
2023-04-01T04:18:47.944Z,6.16
2023-04-01T04:20:55.950Z,6.19
2023-04-01T04:23:07.383Z,6.12
2023-04-01T04:25:17.079Z,6.02
2023-04-01T04:27:25.066Z,5.96
2023-04-01T04:29:40.944Z,5.91
2023-04-01T04:31:48.890Z,5.90
2023-04-01T04:33:57.502Z,5.97
2023-04-01T04:36:06.920Z,5.97
2023-04-01T04:38:17.997Z,5.93
2023-04-01T04:40:25.901Z,5.98
2023-04-01T04:42:33.757Z,5.98
2023-04-01T04:44:47.812Z,6.05
2023-04-01T04:46:58.249Z,6.02
2023-04-01T04:49:06.612Z,5.87
2023-04-01T04:51:17.679Z,5.88
2023-04-01T04:53:28.548Z,5.83
2023-04-01T04:55:36.503Z,5.97
2023-04-01T04:57:59.387Z,6.13
2023-04-01T05:00:09.369Z,6.17
2023-04-01T05:02:43.838Z,6.27
2023-04-01T05:04:51.761Z,6.22
2023-04-01T05:06:59.745Z,6.22
2023-04-01T05:09:10.407Z,6.31
2023-04-01T05:11:21.635Z,6.21
2023-04-01T05:13:31.108Z,6.38
2023-04-01T05:15:39.638Z,6.36
2023-04-01T05:17:48.596Z,6.56
2023-04-01T05:19:56.743Z,6.68
2023-04-01T05:22:04.669Z,6.65
2023-04-01T05:24:15.918Z,6.73
2023-04-01T05:26:24.381Z,6.89
2023-04-01T05:28:32.387Z,6.80
2023-04-01T05:30:40.368Z,6.84
2023-04-01T05:33:09.173Z,6.83
2023-04-01T05:35:17.680Z,6.83
2023-04-01T05:37:26.910Z,6.96
2023-04-01T05:39:40.312Z,7.05
2023-04-01T05:41:49.877Z,7.09
2023-04-01T05:43:58.155Z,7.21
2023-04-01T05:46:26.300Z,7.11
2023-04-01T05:48:41.807Z,7.20
2023-04-01T05:50:50.114Z,7.33
2023-04-01T05:52:58.700Z,7.41
2023-04-01T05:55:10.712Z,7.50
2023-04-01T05:57:18.981Z,7.56
2023-04-01T05:59:27.017Z,7.61
2023-04-01T06:01:35.121Z,7.67
2023-04-01T06:03:43.295Z,7.78
2023-04-01T06:05:53.280Z,7.88
2023-04-01T06:08:04.778Z,8.17
2023-04-01T06:10:19.325Z,8.17
2023-04-01T06:12:39.846Z,8.33
2023-04-01T06:14:55.298Z,8.54
2023-04-01T06:17:22.978Z,8.67
2023-04-01T06:19:40.155Z,8.80
2023-04-01T06:22:26.370Z,8.69
2023-04-01T06:24:54.101Z,8.95
2023-04-01T06:27:13.367Z,9.25
2023-04-01T06:29:48.932Z,9.75
2023-04-01T06:32:21.955Z,10.24
2023-04-01T06:34:42.209Z,10.29
2023-04-01T06:37:13.371Z,10.23
2023-04-01T06:39:51.238Z,10.03
2023-04-01T06:42:20.924Z,9.57
2023-04-01T06:44:40.151Z,9.41
2023-04-01T06:47:23.071Z,9.29
2023-04-01T06:50:00.285Z,9.27
2023-04-01T06:52:34.263Z,9.02
2023-04-01T06:55:14.117Z,9.02
2023-04-01T06:58:22.689Z,8.93
2023-04-01T07:00:35.515Z,8.81
2023-04-01T07:02:55.008Z,8.82
2023-04-01T07:05:06.050Z,8.87
2023-04-01T07:07:21.526Z,8.97
2023-04-01T07:09:42.880Z,9.05
2023-04-01T07:12:19.440Z,9.06
2023-04-01T07:14:53.085Z,9.21
2023-04-01T07:17:06.234Z,9.19
2023-04-01T07:19:20.766Z,9.35
2023-04-01T07:21:44.531Z,9.39
2023-04-01T07:24:07.347Z,9.31
2023-04-01T07:26:26.407Z,9.22
2023-04-01T07:28:43.616Z,9.29
2023-04-01T07:31:24.246Z,9.46
2023-04-01T07:33:40.620Z,9.40
2023-04-01T07:35:56.863Z,9.20
2023-04-01T07:38:19.880Z,9.21
2023-04-01T07:40:36.292Z,9.24
2023-04-01T07:42:59.659Z,9.31
2023-04-01T07:45:17.605Z,9.30
2023-04-01T07:47:40.431Z,9.41
2023-04-01T07:49:58.282Z,9.34
2023-04-01T07:52:13.237Z,9.26
2023-04-01T07:54:33.984Z,9.21
2023-04-01T07:56:49.766Z,9.34
2023-04-01T07:59:11.260Z,9.51
2023-04-01T08:01:46.550Z,9.23
2023-04-01T08:04:18.673Z,9.32
2023-04-01T08:06:33.631Z,9.57
2023-04-01T08:08:53.401Z,9.53
2023-04-01T08:11:31.514Z,9.62
2023-04-01T08:14:07.930Z,9.69
2023-04-01T08:16:44.707Z,9.85
2023-04-01T08:19:08.366Z,9.81
2023-04-01T08:21:24.484Z,9.73
2023-04-01T08:23:36.553Z,9.67
2023-04-01T08:25:52.262Z,9.65
2023-04-01T08:28:08.624Z,9.73
2023-04-01T08:30:23.123Z,9.74
2023-04-01T08:32:38.406Z,9.85
2023-04-01T08:34:55.149Z,9.71
2023-04-01T08:37:20.936Z,9.94
2023-04-01T08:39:36.476Z,10.16
2023-04-01T08:42:09.492Z,10.03
2023-04-01T08:45:18.852Z,9.87
2023-04-01T08:47:56.896Z,9.90
2023-04-01T08:50:30.546Z,10.05
2023-04-01T08:53:10.813Z,9.94
2023-04-01T08:55:27.656Z,9.77
2023-04-01T08:57:56.766Z,9.53
2023-04-01T09:00:34.346Z,9.17
2023-04-01T09:03:18.722Z,8.94
2023-04-01T09:05:51.929Z,9.04
2023-04-01T09:08:11.162Z,8.91
2023-04-01T09:10:36.210Z,8.87
2023-04-01T09:13:18.089Z,8.84
2023-04-01T09:16:10.902Z,8.80
2023-04-01T09:18:53.152Z,8.79
2023-04-01T09:21:28.682Z,8.99
2023-04-01T09:23:52.040Z,8.94
2023-04-01T09:26:23.135Z,9.04
2023-04-01T09:28:37.477Z,9.22
2023-04-01T09:31:18.762Z,9.22
2023-04-01T09:34:07.995Z,9.36
2023-04-01T09:37:10.656Z,9.47
2023-04-01T09:39:38.741Z,9.60
2023-04-01T09:42:10.077Z,9.59
2023-04-01T09:44:35.216Z,9.66
2023-04-01T09:47:13.664Z,9.82
2023-04-01T09:49:54.728Z,9.45
2023-04-01T09:52:21.120Z,9.52
2023-04-01T09:54:44.587Z,9.50
2023-04-01T09:57:29.796Z,9.31
2023-04-01T10:00:13.580Z,9.58
2023-04-01T10:02:51.678Z,9.35
2023-04-01T10:05:48.959Z,9.43
2023-04-01T10:08:23.503Z,9.49
2023-04-01T10:11:01.785Z,9.57
2023-04-01T10:13:46.653Z,9.56
2023-04-01T10:16:26.416Z,9.54
2023-04-01T10:19:09.153Z,9.51
2023-04-01T10:21:57.685Z,9.48
2023-04-01T10:24:24.028Z,9.52
2023-04-01T10:27:20.728Z,9.68
2023-04-01T10:30:16.573Z,9.62
2023-04-01T10:32:58.208Z,10.01
2023-04-01T10:35:33.392Z,10.09
2023-04-01T10:38:20.186Z,10.03
2023-04-01T10:40:42.040Z,10.11
2023-04-01T10:43:53.745Z,10.29
2023-04-01T10:46:25.982Z,10.85
2023-04-01T10:49:02.462Z,11.20
2023-04-01T10:51:26.025Z,11.63
2023-04-01T10:54:02.503Z,11.32
2023-04-01T10:56:51.724Z,11.09
2023-04-01T10:59:49.547Z,11.14
2023-04-01T11:03:00.464Z,10.98
2023-04-01T11:05:58.264Z,11.09
2023-04-01T11:08:39.746Z,11.18
2023-04-01T11:11:19.919Z,11.17
2023-04-01T11:14:12.108Z,10.64
2023-04-01T11:16:48.656Z,10.58
2023-04-01T11:19:26.686Z,10.49
2023-04-01T11:22:01.740Z,10.67
2023-04-01T11:24:56.475Z,10.74
2023-04-01T11:27:54.548Z,11.16
2023-04-01T11:30:18.429Z,11.23
2023-04-01T11:32:46.743Z,11.54
2023-04-01T11:35:07.177Z,11.27
2023-04-01T11:37:32.972Z,11.61
2023-04-01T11:40:09.241Z,11.60
2023-04-01T11:42:50.548Z,11.67
2023-04-01T11:45:41.018Z,11.28
2023-04-01T11:48:11.389Z,11.45
2023-04-01T11:50:31.435Z,11.39
2023-04-01T11:53:05.818Z,11.26
2023-04-01T11:55:27.615Z,11.14
2023-04-01T11:57:55.913Z,11.34
2023-04-01T12:00:34.468Z,11.15
2023-04-01T12:02:54.540Z,10.93
2023-04-01T12:05:42.149Z,11.07
2023-04-01T12:08:04.306Z,11.22
2023-04-01T12:10:23.116Z,11.02
2023-04-01T12:12:50.766Z,10.81
2023-04-01T12:15:25.256Z,10.86
2023-04-01T12:17:43.159Z,11.03
2023-04-01T12:19:57.844Z,10.97
2023-04-01T12:22:44.006Z,10.78
2023-04-01T12:24:58.211Z,10.82
2023-04-01T12:27:27.359Z,10.83
2023-04-01T12:29:52.693Z,10.96
2023-04-01T12:32:09.235Z,10.81
2023-04-01T12:35:03.568Z,10.81
2023-04-01T12:37:17.922Z,11.00
2023-04-01T12:40:15.186Z,10.92
2023-04-01T12:42:43.183Z,11.15
2023-04-01T12:45:06.510Z,11.57
2023-04-01T12:47:30.943Z,11.77
2023-04-01T12:49:59.270Z,12.32
2023-04-01T12:52:14.561Z,12.21
2023-04-01T12:55:01.262Z,12.48
2023-04-01T12:57:29.853Z,12.42
2023-04-01T12:59:57.878Z,12.56
2023-04-01T13:02:16.254Z,12.48
2023-04-01T13:04:48.932Z,12.42
2023-04-01T13:07:22.322Z,12.31
2023-04-01T13:09:42.328Z,12.30
2023-04-01T13:12:06.000Z,11.94
2023-04-01T13:14:34.559Z,12.30
2023-04-01T13:16:52.357Z,11.98
2023-04-01T13:19:06.816Z,12.01
2023-04-01T13:21:22.836Z,12.10
2023-04-01T13:23:41.148Z,11.98
2023-04-01T13:26:06.996Z,11.83
2023-04-01T13:28:27.858Z,11.28
2023-04-01T13:30:43.367Z,11.56
2023-04-01T13:33:02.155Z,11.42
2023-04-01T13:35:23.405Z,11.33
2023-04-01T13:37:54.410Z,11.28
2023-04-01T13:40:22.278Z,11.18
2023-04-01T13:42:34.109Z,11.28
2023-04-01T13:44:51.981Z,11.24
2023-04-01T13:47:46.174Z,11.59
2023-04-01T13:50:21.737Z,11.53
2023-04-01T13:52:45.751Z,11.82
2023-04-01T13:55:07.599Z,11.82
2023-04-01T13:57:39.240Z,11.98
2023-04-01T14:00:08.869Z,12.08
2023-04-01T14:03:01.050Z,12.14
2023-04-01T14:05:45.251Z,12.02
2023-04-01T14:08:08.701Z,12.16
2023-04-01T14:10:23.474Z,12.22
2023-04-01T14:12:38.563Z,12.25
2023-04-01T14:15:00.910Z,12.15
2023-04-01T14:17:47.536Z,12.39
2023-04-01T14:20:34.628Z,12.51
2023-04-01T14:22:53.065Z,12.28
2023-04-01T14:25:39.607Z,12.07
2023-04-01T14:28:05.275Z,12.16
2023-04-01T14:30:44.735Z,11.87
2023-04-01T14:33:00.434Z,12.13
2023-04-01T14:35:34.565Z,11.85
2023-04-01T14:38:08.210Z,11.53
2023-04-01T14:40:30.346Z,11.33
2023-04-01T14:43:14.063Z,11.22
2023-04-01T14:45:50.348Z,11.37
2023-04-01T14:48:02.597Z,11.35
2023-04-01T14:50:16.456Z,11.18
2023-04-01T14:52:28.999Z,11.20
2023-04-01T14:54:40.721Z,11.35
2023-04-01T14:56:54.531Z,11.44
2023-04-01T14:59:03.237Z,11.62
2023-04-01T15:01:22.779Z,11.44
2023-04-01T15:03:36.827Z,11.34
2023-04-01T15:05:53.231Z,11.29
2023-04-01T15:08:18.045Z,11.27
2023-04-01T15:10:49.168Z,11.12
2023-04-01T15:13:14.709Z,11.11
2023-04-01T15:15:36.706Z,10.75
2023-04-01T15:17:59.605Z,10.66
2023-04-01T15:20:28.143Z,10.74
2023-04-01T15:22:56.623Z,10.56
2023-04-01T15:25:24.545Z,10.58
2023-04-01T15:27:44.692Z,10.46
2023-04-01T15:30:09.200Z,10.50
2023-04-01T15:32:25.990Z,10.37
2023-04-01T15:34:44.733Z,10.40
2023-04-01T15:37:01.548Z,10.45
2023-04-01T15:39:18.292Z,10.52
2023-04-01T15:41:40.276Z,10.51
2023-04-01T15:43:50.137Z,10.39
2023-04-01T15:46:29.928Z,10.26
2023-04-01T15:48:50.208Z,10.23
2023-04-01T15:51:06.976Z,10.23
2023-04-01T15:53:26.650Z,10.17
2023-04-01T15:55:44.286Z,10.14
2023-04-01T15:58:10.735Z,10.15
2023-04-01T16:00:32.641Z,10.05
2023-04-01T16:02:54.125Z,10.16
2023-04-01T16:05:08.121Z,10.17
2023-04-01T16:07:28.492Z,10.26
2023-04-01T16:09:55.616Z,10.18
2023-04-01T16:12:11.328Z,10.36
2023-04-01T16:14:34.014Z,10.16
2023-04-01T16:16:57.817Z,10.04
2023-04-01T16:19:32.115Z,10.00
2023-04-01T16:21:46.416Z,10.11
2023-04-01T16:24:00.660Z,10.04
2023-04-01T16:26:16.980Z,9.98
2023-04-01T16:28:30.667Z,10.02
2023-04-01T16:30:42.546Z,10.01
2023-04-01T16:32:57.672Z,9.96
2023-04-01T16:35:24.360Z,9.92
2023-04-01T16:37:36.667Z,9.87
2023-04-01T16:39:51.857Z,9.95
2023-04-01T16:42:24.901Z,9.89
2023-04-01T16:44:33.329Z,9.80
2023-04-01T16:46:43.681Z,9.80
2023-04-01T16:49:03.647Z,9.58
2023-04-01T16:51:26.045Z,9.68
2023-04-01T16:53:44.993Z,9.73
2023-04-01T16:55:55.530Z,9.63
2023-04-01T16:58:05.508Z,9.74
2023-04-01T17:00:26.657Z,9.73
2023-04-01T17:02:41.197Z,9.80
2023-04-01T17:04:51.713Z,9.78
2023-04-01T17:07:11.346Z,9.65
2023-04-01T17:09:33.619Z,9.71
2023-04-01T17:11:48.689Z,9.68
2023-04-01T17:14:01.665Z,9.64
2023-04-01T17:16:28.307Z,9.72
2023-04-01T17:18:47.291Z,9.81
2023-04-01T17:21:03.778Z,9.65
2023-04-01T17:23:24.175Z,9.64
2023-04-01T17:25:48.476Z,9.63
2023-04-01T17:28:03.301Z,9.72
2023-04-01T17:30:26.681Z,9.63
2023-04-01T17:32:51.524Z,9.65
2023-04-01T17:35:08.891Z,9.67
2023-04-01T17:37:33.278Z,9.65
2023-04-01T17:39:56.431Z,9.51
2023-04-01T17:42:13.573Z,9.61
2023-04-01T17:44:33.261Z,9.53
2023-04-01T17:46:52.291Z,9.52
2023-04-01T17:49:13.105Z,9.61
2023-04-01T17:51:32.581Z,9.59
2023-04-01T17:53:51.748Z,9.48
2023-04-01T17:56:41.803Z,9.41
2023-04-01T17:58:55.012Z,9.43
2023-04-01T18:01:19.853Z,9.40
2023-04-01T18:03:59.054Z,9.34
2023-04-01T18:06:15.737Z,9.27
2023-04-01T18:08:37.416Z,9.26
2023-04-01T18:10:58.931Z,9.30
2023-04-01T18:13:41.610Z,9.23
2023-04-01T18:16:00.907Z,9.34
2023-04-01T18:18:36.869Z,9.36
2023-04-01T18:20:56.467Z,9.30
2023-04-01T18:23:13.197Z,9.24
2023-04-01T18:25:26.554Z,9.36
2023-04-01T18:27:42.324Z,9.41
2023-04-01T18:29:57.891Z,9.38
2023-04-01T18:32:19.469Z,9.36
2023-04-01T18:34:44.803Z,9.35
2023-04-01T18:36:58.439Z,9.12
2023-04-01T18:39:14.126Z,9.29
2023-04-01T18:41:30.390Z,9.08
2023-04-01T18:43:48.261Z,9.06
2023-04-01T18:46:03.345Z,8.91
2023-04-01T18:48:25.000Z,8.82
2023-04-01T18:50:40.730Z,8.73
2023-04-01T18:52:48.929Z,8.75
2023-04-01T18:55:28.744Z,8.75
2023-04-01T18:57:46.003Z,8.62
2023-04-01T18:59:57.486Z,8.55
2023-04-01T19:02:22.728Z,8.59
2023-04-01T19:04:37.979Z,8.50
2023-04-01T19:06:53.181Z,8.45
2023-04-01T19:09:14.227Z,8.32
2023-04-01T19:11:31.637Z,8.20
2023-04-01T19:13:50.414Z,8.06
2023-04-01T19:16:09.114Z,7.97
2023-04-01T19:18:54.361Z,8.01
2023-04-01T19:21:11.651Z,7.72
2023-04-01T19:24:19.353Z,7.59
2023-04-01T19:26:33.724Z,7.63
2023-04-01T19:28:56.549Z,7.42
2023-04-01T19:31:17.135Z,7.27
2023-04-01T19:33:48.320Z,7.22
2023-04-01T19:36:10.310Z,7.21
2023-04-01T19:38:31.036Z,7.33
2023-04-01T19:41:02.304Z,7.24
2023-04-01T19:43:22.863Z,7.22
2023-04-01T19:45:43.368Z,7.30
2023-04-01T19:48:02.923Z,7.34
2023-04-01T19:50:26.521Z,7.18
2023-04-01T19:52:37.773Z,7.34
2023-04-01T19:54:58.057Z,7.31
2023-04-01T19:57:17.203Z,7.31
2023-04-01T19:59:32.417Z,7.28
2023-04-01T20:01:48.428Z,7.36
2023-04-01T20:04:00.258Z,7.46
2023-04-01T20:06:25.160Z,7.43
2023-04-01T20:08:40.708Z,7.40
2023-04-01T20:10:59.688Z,7.27
2023-04-01T20:13:17.051Z,7.24
2023-04-01T20:15:32.377Z,7.26
2023-04-01T20:17:47.703Z,7.53
2023-04-01T20:20:02.657Z,7.47
2023-04-01T20:22:37.977Z,7.53
2023-04-01T20:24:49.901Z,7.43
2023-04-01T20:27:07.392Z,7.40
2023-04-01T20:29:42.186Z,7.40
2023-04-01T20:31:59.879Z,7.32
2023-04-01T20:34:25.557Z,7.38
2023-04-01T20:36:40.332Z,7.48
2023-04-01T20:39:18.618Z,7.54
2023-04-01T20:41:32.178Z,7.35
2023-04-01T20:44:06.678Z,7.35
2023-04-01T20:46:23.297Z,7.32
2023-04-01T20:49:17.165Z,7.46
2023-04-01T20:51:30.791Z,7.39
2023-04-01T20:53:56.326Z,7.49
2023-04-01T20:56:34.411Z,7.47
2023-04-01T20:58:55.597Z,7.44
2023-04-01T21:01:15.352Z,7.44
2023-04-01T21:03:35.594Z,7.47
2023-04-01T21:06:11.863Z,7.47
2023-04-01T21:08:27.282Z,7.37
2023-04-01T21:10:44.795Z,7.44
2023-04-01T21:12:58.300Z,7.54
2023-04-01T21:15:34.483Z,7.48
2023-04-01T21:17:56.146Z,7.48
2023-04-01T21:20:17.373Z,7.41
2023-04-01T21:22:47.611Z,7.54
2023-04-01T21:25:21.750Z,7.61
2023-04-01T21:27:43.919Z,7.67
2023-04-01T21:30:01.645Z,7.63
2023-04-01T21:32:31.479Z,7.58
2023-04-01T21:34:46.874Z,7.47
2023-04-01T21:37:07.049Z,7.57
2023-04-01T21:39:29.873Z,7.61
2023-04-01T21:41:57.259Z,7.42
2023-04-01T21:44:38.369Z,7.33
2023-04-01T21:47:12.362Z,7.41
2023-04-01T21:49:48.071Z,7.38
2023-04-01T21:52:26.009Z,7.44
2023-04-01T21:55:02.670Z,7.43
2023-04-01T21:57:51.835Z,7.40
2023-04-01T22:00:23.446Z,7.42
2023-04-01T22:03:06.014Z,7.40
2023-04-01T22:05:27.219Z,7.42
2023-04-01T22:07:41.413Z,7.43
2023-04-01T22:09:57.976Z,7.45
2023-04-01T22:12:14.557Z,7.49
2023-04-01T22:14:27.862Z,7.60
2023-04-01T22:16:43.710Z,7.54
2023-04-01T22:19:00.316Z,7.59
2023-04-01T22:21:17.690Z,7.66
2023-04-01T22:23:32.035Z,7.63
2023-04-01T22:25:49.498Z,7.47
2023-04-01T22:28:01.791Z,7.52
2023-04-01T22:30:22.584Z,7.46
2023-04-01T22:32:36.765Z,7.43
2023-04-01T22:34:52.129Z,7.52
2023-04-01T22:37:11.951Z,7.56
2023-04-01T22:39:34.172Z,7.39
2023-04-01T22:41:53.962Z,7.38
2023-04-01T22:44:03.394Z,7.52
2023-04-01T22:46:27.763Z,7.40
2023-04-01T22:48:42.226Z,7.42
2023-04-01T22:50:59.049Z,7.42
2023-04-01T22:53:18.639Z,7.44
2023-04-01T22:55:29.794Z,7.50
2023-04-01T22:57:45.867Z,7.47
2023-04-01T22:59:58.986Z,7.48
2023-04-01T23:02:12.633Z,7.69
2023-04-01T23:04:25.645Z,7.61
2023-04-01T23:06:39.392Z,7.61
2023-04-01T23:09:09.124Z,7.55
2023-04-01T23:11:22.977Z,7.48
2023-04-01T23:13:39.090Z,7.39
2023-04-01T23:15:48.060Z,7.38
2023-04-01T23:18:17.255Z,7.46
2023-04-01T23:20:34.953Z,7.45
2023-04-01T23:22:56.026Z,7.42
2023-04-01T23:25:20.015Z,7.47
2023-04-01T23:27:36.279Z,7.44
2023-04-01T23:29:44.464Z,7.42
2023-04-01T23:32:00.702Z,7.37
2023-04-01T23:34:29.805Z,7.46
2023-04-01T23:36:43.193Z,7.46
2023-04-01T23:38:53.190Z,7.41
2023-04-01T23:41:04.960Z,7.46
2023-04-01T23:43:18.884Z,7.44
2023-04-01T23:45:26.878Z,7.33
2023-04-01T23:47:37.171Z,7.30
2023-04-01T23:49:50.636Z,7.31
2023-04-01T23:52:02.532Z,7.35
2023-04-01T23:54:19.013Z,7.28
2023-04-01T23:56:38.285Z,7.18
2023-04-01T23:58:49.784Z,7.23
